Time;durP1;ratioP1;P1;durP2;ratioP2;P2;SDS_P1;SDS_P2;PMS_P1;PMS_P2;Temp;Humidity;BMP_temperature;BMP_pressure;BME280_temperature;BME280_humidity;BME280_pressure;Samples;Min_cycle;Max_cycle;Signal;HPM_P1;HPM_P2
2023/07/08 00:02:22;;;;;;;3.97;2.20;;;;;;;;;;5046866;28;20017;-75
2023/07/08 00:04:47;;;;;;;3.22;2.30;;;;;;;;;;5027400;28;20029;-75
2023/07/08 00:07:18;;;;;;;4.50;2.28;;;;;;;;;;5050497;28;20044;-75
2023/07/08 00:09:44;;;;;;;4.00;1.88;;;;;;;;;;5031462;28;20091;-77
2023/07/08 00:12:11;;;;;;;3.78;2.13;;;;;;;;;;5031986;28;20029;-75
2023/07/08 00:14:36;;;;;;;3.85;2.22;;;;;;;;;;5027239;28;20035;-75
2023/07/08 00:17:01;;;;;;;3.78;2.10;;;;;;;;;;5050484;28;20036;-75
2023/07/08 00:19:27;;;;;;;4.18;2.10;;;;;;;;;;5040682;28;20492;-75
2023/07/08 00:21:52;;;;;;;4.00;1.95;;;;;;;;;;5041405;28;20447;-76
2023/07/08 00:24:18;;;;;;;5.15;1.80;;;;;;;;;;5042841;28;20052;-74
2023/07/08 00:26:43;;;;;;;4.38;1.90;;;;;;;;;;5043643;28;20060;-75
2023/07/08 00:29:12;;;;;;;4.50;2.20;;;;;;;;;;5029123;28;20033;-74
2023/07/08 00:31:37;;;;;;;3.47;1.88;;;;;;;;;;5053033;28;20032;-75
2023/07/08 00:34:03;;;;;;;4.28;2.00;;;;;;;;;;5035436;28;20025;-76
2023/07/08 00:36:29;;;;;;;4.60;2.10;;;;;;;;;;5042563;28;20072;-77
2023/07/08 00:38:56;;;;;;;3.15;1.98;;;;;;;;;;5041119;28;20040;-75
2023/07/08 00:41:40;;;;;;;3.00;1.90;;;;;;;;;;5035163;28;20017;-74
2023/07/08 00:44:10;;;;;;;3.38;2.10;;;;;;;;;;5026826;28;20044;-74
2023/07/08 00:46:48;;;;;;;7.18;2.20;;;;;;;;;;5049455;28;20025;-75
2023/07/08 00:49:26;;;;;;;6.95;2.30;;;;;;;;;;5056418;28;20056;-74
2023/07/08 00:51:51;;;;;;;3.83;2.00;;;;;;;;;;5032890;28;20115;-75
2023/07/08 00:54:19;;;;;;;3.75;2.20;;;;;;;;;;5047814;28;20112;-77
2023/07/08 00:56:53;;;;;;;4.10;2.08;;;;;;;;;;5037667;28;20025;-78
2023/07/08 00:59:31;;;;;;;5.18;2.10;;;;;;;;;;5055422;28;20030;-75
2023/07/08 01:02:00;;;;;;;3.53;2.10;;;;;;;;;;5052659;28;20037;-76
2023/07/08 01:04:34;;;;;;;4.95;2.20;;;;;;;;;;5050799;28;20040;-75
2023/07/08 01:07:03;;;;;;;4.50;1.83;;;;;;;;;;5038062;28;20481;-75
2023/07/08 01:09:37;;;;;;;4.07;2.00;;;;;;;;;;5030763;28;20028;-75
2023/07/08 01:12:05;;;;;;;4.45;2.15;;;;;;;;;;5034816;28;20024;-74
2023/07/08 01:14:34;;;;;;;3.03;2.00;;;;;;;;;;5056099;28;20031;-74
2023/07/08 01:16:59;;;;;;;3.60;1.92;;;;;;;;;;5045430;28;20494;-76
2023/07/08 01:19:32;;;;;;;3.55;1.92;;;;;;;;;;5035361;28;20116;-75
2023/07/08 01:21:59;;;;;;;3.28;2.28;;;;;;;;;;5049873;28;20496;-75
2023/07/08 01:24:26;;;;;;;3.22;2.00;;;;;;;;;;5028714;28;20485;-75
2023/07/08 01:26:51;;;;;;;4.28;2.30;;;;;;;;;;5034744;28;20052;-75
2023/07/08 01:29:17;;;;;;;4.63;2.20;;;;;;;;;;5031736;28;20449;-75
2023/07/08 01:31:48;;;;;;;4.18;2.10;;;;;;;;;;5053517;28;20075;-75
2023/07/08 01:34:15;;;;;;;2.95;1.70;;;;;;;;;;5051926;28;20029;-75
2023/07/08 01:36:46;;;;;;;3.95;2.25;;;;;;;;;;5055405;28;20056;-75
2023/07/08 01:39:17;;;;;;;3.58;2.42;;;;;;;;;;5035867;28;20485;-74
2023/07/08 01:41:43;;;;;;;3.20;1.95;;;;;;;;;;5030690;28;20491;-75
2023/07/08 01:44:38;;;;;;;5.32;2.20;;;;;;;;;;5036030;28;20125;-75
2023/07/08 01:47:24;;;;;;;3.90;2.58;;;;;;;;;;5030990;28;20511;-75
2023/07/08 01:49:49;;;;;;;3.30;2.00;;;;;;;;;;5030263;28;20050;-75
2023/07/08 01:52:17;;;;;;;4.40;2.20;;;;;;;;;;5030925;28;20043;-74
2023/07/08 01:54:43;;;;;;;4.78;2.13;;;;;;;;;;5039890;28;20029;-75
2023/07/08 01:57:08;;;;;;;3.42;1.90;;;;;;;;;;5040697;28;20482;-76
2023/07/08 01:59:34;;;;;;;3.58;2.10;;;;;;;;;;5047610;28;20033;-75
2023/07/08 02:02:00;;;;;;;3.67;2.00;;;;;;;;;;5045794;28;20462;-75
2023/07/08 02:04:26;;;;;;;5.10;2.00;;;;;;;;;;5045688;28;20066;-76
2023/07/08 02:06:55;;;;;;;6.63;2.30;;;;;;;;;;5046065;28;20025;-76
2023/07/08 02:09:21;;;;;;;3.90;2.08;;;;;;;;;;5052077;28;20137;-74
2023/07/08 02:11:47;;;;;;;3.42;2.10;;;;;;;;;;5025091;28;20481;-74
2023/07/08 02:14:12;;;;;;;5.53;2.20;;;;;;;;;;5049365;28;20022;-75
2023/07/08 02:16:38;;;;;;;3.15;1.88;;;;;;;;;;5034122;28;20028;-75
2023/07/08 02:19:03;;;;;;;7.78;2.17;;;;;;;;;;5051552;28;20048;-75
2023/07/08 02:21:30;;;;;;;5.45;2.25;;;;;;;;;;5050780;28;20020;-75
2023/07/08 02:23:56;;;;;;;4.32;2.03;;;;;;;;;;5048068;28;20504;-75
2023/07/08 02:26:22;;;;;;;6.68;2.20;;;;;;;;;;5046041;28;20075;-75
2023/07/08 02:28:47;;;;;;;3.67;2.25;;;;;;;;;;5048151;28;20466;-75
2023/07/08 02:31:13;;;;;;;4.85;2.30;;;;;;;;;;5053991;28;20028;-74
2023/07/08 02:33:38;;;;;;;4.10;2.33;;;;;;;;;;5060740;28;20021;-76
2023/07/08 02:36:03;;;;;;;3.70;2.20;;;;;;;;;;5036760;28;20555;-75
2023/07/08 02:38:29;;;;;;;4.68;2.00;;;;;;;;;;5045546;28;20029;-74
2023/07/08 02:40:54;;;;;;;3.75;2.35;;;;;;;;;;5037649;28;20029;-74
2023/07/08 02:43:20;;;;;;;4.75;2.20;;;;;;;;;;5045864;28;20025;-75
2023/07/08 02:45:48;;;;;;;3.60;2.17;;;;;;;;;;5030513;28;20028;-74
2023/07/08 02:48:13;;;;;;;3.50;2.28;;;;;;;;;;5051047;28;20032;-74
2023/07/08 02:50:39;;;;;;;5.50;2.55;;;;;;;;;;5029057;28;20021;-75
2023/07/08 02:53:04;;;;;;;3.75;2.30;;;;;;;;;;5032178;28;20029;-75
2023/07/08 02:55:30;;;;;;;4.30;2.33;;;;;;;;;;5050775;28;20032;-74
2023/07/08 02:57:56;;;;;;;4.28;2.20;;;;;;;;;;5044535;28;20033;-75
2023/07/08 03:00:21;;;;;;;3.08;2.00;;;;;;;;;;5035769;28;20020;-75
2023/07/08 03:02:47;;;;;;;4.78;2.00;;;;;;;;;;5031823;28;20036;-74
2023/07/08 03:05:12;;;;;;;3.63;2.40;;;;;;;;;;5034853;28;20014;-74
2023/07/08 03:07:37;;;;;;;4.25;2.55;;;;;;;;;;5028518;28;20029;-74
2023/07/08 03:10:03;;;;;;;4.90;2.50;;;;;;;;;;5030719;28;20036;-76
2023/07/08 03:12:29;;;;;;;4.13;2.20;;;;;;;;;;5029098;28;20029;-75
2023/07/08 03:14:54;;;;;;;4.82;2.60;;;;;;;;;;5045668;28;20111;-75
2023/07/08 03:17:20;;;;;;;3.47;2.15;;;;;;;;;;5026894;28;20071;-75
2023/07/08 03:19:45;;;;;;;3.95;2.20;;;;;;;;;;5036809;28;20020;-74
2023/07/08 03:22:10;;;;;;;3.40;2.20;;;;;;;;;;5053607;28;20487;-75
2023/07/08 03:24:36;;;;;;;4.22;2.30;;;;;;;;;;5051632;28;20036;-75
2023/07/08 03:27:04;;;;;;;4.03;2.03;;;;;;;;;;5040445;28;20083;-75
2023/07/08 03:29:30;;;;;;;3.30;2.22;;;;;;;;;;5060041;28;20039;-75
2023/07/08 03:31:56;;;;;;;3.20;2.00;;;;;;;;;;5033825;28;20112;-75
2023/07/08 03:34:21;;;;;;;4.13;2.30;;;;;;;;;;5028183;28;20017;-75
2023/07/08 03:36:51;;;;;;;6.30;2.08;;;;;;;;;;5043973;28;20478;-75
2023/07/08 03:39:24;;;;;;;3.97;2.10;;;;;;;;;;5024293;28;20037;-75
2023/07/08 03:41:51;;;;;;;4.03;2.15;;;;;;;;;;5031418;28;20028;-75
2023/07/08 03:44:16;;;;;;;3.40;2.17;;;;;;;;;;5055123;28;20036;-75
2023/07/08 03:46:49;;;;;;;4.15;2.20;;;;;;;;;;5052852;28;20412;-74
2023/07/08 03:49:15;;;;;;;4.30;2.10;;;;;;;;;;5044506;28;20389;-74
2023/07/08 03:51:42;;;;;;;3.90;2.20;;;;;;;;;;5046452;28;21165;-74
2023/07/08 03:54:11;;;;;;;4.20;2.20;;;;;;;;;;5054834;28;20025;-74
2023/07/08 03:56:37;;;;;;;3.47;2.10;;;;;;;;;;5053994;28;20043;-75
2023/07/08 03:59:03;;;;;;;4.00;2.00;;;;;;;;;;5055332;28;20111;-74
2023/07/08 04:01:28;;;;;;;3.15;1.98;;;;;;;;;;5055413;28;20033;-74
2023/07/08 04:03:56;;;;;;;3.40;1.92;;;;;;;;;;5036268;28;20024;-74
2023/07/08 04:06:22;;;;;;;3.63;2.05;;;;;;;;;;5052557;28;20028;-74
2023/07/08 04:08:48;;;;;;;4.63;2.33;;;;;;;;;;5031869;28;20028;-75
2023/07/08 04:11:16;;;;;;;3.92;2.33;;;;;;;;;;5054970;28;20080;-74
2023/07/08 04:13:41;;;;;;;3.20;2.10;;;;;;;;;;5041277;28;20021;-74
2023/07/08 04:16:09;;;;;;;3.65;2.13;;;;;;;;;;5038746;28;20039;-74
2023/07/08 04:18:36;;;;;;;4.22;2.25;;;;;;;;;;5047904;28;20025;-74
2023/07/08 04:21:02;;;;;;;3.80;2.20;;;;;;;;;;5036270;28;20032;-74
2023/07/08 04:23:27;;;;;;;3.75;2.25;;;;;;;;;;5033912;28;20025;-74
2023/07/08 04:25:55;;;;;;;3.97;2.13;;;;;;;;;;5051273;28;20029;-74
2023/07/08 04:28:21;;;;;;;4.53;2.42;;;;;;;;;;5051687;28;20075;-75
2023/07/08 04:30:47;;;;;;;3.55;2.17;;;;;;;;;;5048545;28;20553;-74
2023/07/08 04:33:14;;;;;;;3.95;2.42;;;;;;;;;;5056531;28;20021;-75
2023/07/08 04:35:40;;;;;;;3.67;2.10;;;;;;;;;;5058472;28;20024;-74
2023/07/08 04:38:09;;;;;;;3.70;2.10;;;;;;;;;;5040438;28;20545;-75
2023/07/08 04:40:36;;;;;;;3.50;2.03;;;;;;;;;;5031842;28;20044;-76
2023/07/08 04:43:03;;;;;;;3.53;2.03;;;;;;;;;;5030464;28;20048;-76
2023/07/08 04:45:28;;;;;;;3.63;2.42;;;;;;;;;;5038596;28;20029;-75
2023/07/08 04:47:53;;;;;;;3.47;2.20;;;;;;;;;;5048031;28;20026;-75
2023/07/08 04:50:19;;;;;;;4.10;1.92;;;;;;;;;;5048712;28;20052;-75
2023/07/08 04:52:45;;;;;;;3.70;2.38;;;;;;;;;;5052740;28;20025;-75
2023/07/08 04:55:13;;;;;;;5.97;2.10;;;;;;;;;;5053907;28;20055;-74
2023/07/08 04:57:38;;;;;;;3.78;2.20;;;;;;;;;;5049714;28;20057;-76
2023/07/08 05:00:08;;;;;;;4.65;2.42;;;;;;;;;;5038230;28;20079;-74
2023/07/08 05:02:33;;;;;;;4.03;2.42;;;;;;;;;;5036528;28;20056;-74
2023/07/08 05:04:59;;;;;;;4.30;2.40;;;;;;;;;;5034030;28;20465;-76
2023/07/08 05:07:24;;;;;;;4.95;2.08;;;;;;;;;;5028211;28;20112;-74
2023/07/08 05:09:50;;;;;;;3.97;2.40;;;;;;;;;;5052024;28;20103;-74
2023/07/08 05:12:15;;;;;;;3.13;2.22;;;;;;;;;;5044502;28;20033;-74
2023/07/08 05:14:40;;;;;;;4.20;2.08;;;;;;;;;;5032384;28;20060;-75
2023/07/08 05:17:06;;;;;;;4.05;2.60;;;;;;;;;;5048437;28;20409;-75
2023/07/08 05:19:31;;;;;;;4.75;2.45;;;;;;;;;;5053797;28;20029;-75
2023/07/08 05:21:57;;;;;;;5.65;2.30;;;;;;;;;;5039569;28;20037;-74
2023/07/08 05:24:22;;;;;;;3.90;2.25;;;;;;;;;;5038064;28;20036;-74
2023/07/08 05:26:47;;;;;;;3.63;2.30;;;;;;;;;;5046858;28;20436;-74
2023/07/08 05:29:13;;;;;;;5.32;2.45;;;;;;;;;;5031885;28;20124;-75
2023/07/08 05:31:38;;;;;;;4.10;2.20;;;;;;;;;;5044323;28;20542;-76
2023/07/08 05:34:03;;;;;;;5.18;2.83;;;;;;;;;;5048594;28;20031;-74
2023/07/08 05:36:29;;;;;;;4.15;2.42;;;;;;;;;;5041499;28;20025;-75
2023/07/08 05:38:54;;;;;;;3.83;2.33;;;;;;;;;;5035367;28;20040;-74
2023/07/08 05:41:20;;;;;;;4.63;2.22;;;;;;;;;;5047758;28;20051;-74
2023/07/08 05:43:45;;;;;;;4.13;2.25;;;;;;;;;;5048641;28;20477;-74
2023/07/08 05:46:10;;;;;;;4.22;2.63;;;;;;;;;;5038068;28;20461;-75
2023/07/08 05:48:36;;;;;;;3.85;2.42;;;;;;;;;;5043885;28;20437;-74
2023/07/08 05:51:02;;;;;;;3.97;2.30;;;;;;;;;;5053264;28;20108;-76
2023/07/08 05:53:27;;;;;;;3.83;2.50;;;;;;;;;;5054368;28;20152;-74
2023/07/08 05:55:53;;;;;;;6.50;2.50;;;;;;;;;;5052169;28;20036;-74
2023/07/08 05:58:19;;;;;;;4.72;2.45;;;;;;;;;;5028789;28;20021;-74
2023/07/08 06:00:44;;;;;;;4.32;2.47;;;;;;;;;;5051459;28;20025;-75
2023/07/08 06:03:10;;;;;;;3.97;2.55;;;;;;;;;;5023133;28;20427;-75
2023/07/08 06:05:38;;;;;;;3.88;2.50;;;;;;;;;;5048672;28;20029;-75
2023/07/08 06:08:06;;;;;;;5.80;2.63;;;;;;;;;;5036043;28;20036;-75
2023/07/08 06:10:31;;;;;;;7.07;2.80;;;;;;;;;;5039949;28;20536;-75
2023/07/08 06:12:56;;;;;;;4.90;2.83;;;;;;;;;;5049121;28;20115;-75
2023/07/08 06:15:22;;;;;;;5.15;2.60;;;;;;;;;;5034909;28;20033;-75
2023/07/08 06:17:47;;;;;;;6.13;2.67;;;;;;;;;;5040264;28;20056;-74
2023/07/08 06:20:12;;;;;;;5.75;2.70;;;;;;;;;;5029810;28;20021;-75
2023/07/08 06:22:38;;;;;;;5.00;2.90;;;;;;;;;;5053115;28;20039;-74
2023/07/08 06:25:04;;;;;;;5.63;2.80;;;;;;;;;;5025213;28;20036;-75
2023/07/08 06:27:29;;;;;;;5.93;2.70;;;;;;;;;;5032486;28;20029;-77
2023/07/08 06:29:55;;;;;;;4.18;2.83;;;;;;;;;;5023735;28;20114;-75
2023/07/08 06:32:20;;;;;;;4.65;2.83;;;;;;;;;;5049181;28;20469;-75
2023/07/08 06:34:46;;;;;;;5.63;2.85;;;;;;;;;;5035500;28;20032;-75
2023/07/08 06:37:11;;;;;;;6.03;2.72;;;;;;;;;;5043812;28;20021;-74
2023/07/08 06:39:36;;;;;;;5.72;2.53;;;;;;;;;;5052126;28;20495;-74
2023/07/08 06:42:02;;;;;;;5.72;2.88;;;;;;;;;;5039047;28;20052;-75
2023/07/08 06:44:27;;;;;;;6.15;2.72;;;;;;;;;;5054631;28;20017;-75
2023/07/08 06:46:53;;;;;;;5.32;3.00;;;;;;;;;;5051606;28;20480;-74
2023/07/08 06:49:18;;;;;;;4.82;2.90;;;;;;;;;;5055823;28;20040;-74
2023/07/08 06:51:45;;;;;;;5.70;2.92;;;;;;;;;;5055174;28;20075;-74
2023/07/08 06:54:11;;;;;;;5.82;2.92;;;;;;;;;;5038419;28;20032;-75
2023/07/08 06:56:41;;;;;;;4.65;3.10;;;;;;;;;;5031450;28;20056;-75
2023/07/08 06:59:07;;;;;;;4.65;2.63;;;;;;;;;;5046890;28;20436;-75
2023/07/08 07:01:33;;;;;;;5.15;2.97;;;;;;;;;;5041926;28;20472;-75
2023/07/08 07:03:59;;;;;;;6.43;2.97;;;;;;;;;;5042863;28;20106;-74
2023/07/08 07:06:24;;;;;;;7.18;3.25;;;;;;;;;;5033202;28;20025;-75
2023/07/08 07:08:50;;;;;;;4.90;2.60;;;;;;;;;;5052396;28;20520;-75
2023/07/08 07:11:15;;;;;;;5.40;2.80;;;;;;;;;;5031567;28;20379;-76
2023/07/08 07:13:40;;;;;;;4.47;2.60;;;;;;;;;;5032570;28;20029;-75
2023/07/08 07:16:06;;;;;;;6.88;3.03;;;;;;;;;;5051580;28;20509;-75
2023/07/08 07:18:31;;;;;;;5.15;2.85;;;;;;;;;;5042025;28;20024;-75
2023/07/08 07:20:58;;;;;;;6.40;3.00;;;;;;;;;;5052966;28;20021;-75
2023/07/08 07:23:24;;;;;;;5.65;3.05;;;;;;;;;;5048035;28;20052;-76
2023/07/08 07:25:49;;;;;;;5.05;2.80;;;;;;;;;;5039776;28;20017;-75
2023/07/08 07:28:16;;;;;;;7.30;3.38;;;;;;;;;;5040463;28;20029;-76
2023/07/08 07:30:43;;;;;;;8.27;4.07;;;;;;;;;;5038791;28;20028;-76
2023/07/08 07:33:09;;;;;;;6.35;3.10;;;;;;;;;;5046264;28;20032;-75
2023/07/08 07:35:34;;;;;;;6.22;2.97;;;;;;;;;;5028597;28;20037;-76
2023/07/08 07:38:00;;;;;;;6.03;3.10;;;;;;;;;;5041216;28;20035;-75
2023/07/08 07:40:25;;;;;;;42.72;5.07;;;;;;;;;;5042447;28;20111;-77
2023/07/08 07:42:51;;;;;;;6.03;3.40;;;;;;;;;;5039218;28;20028;-75
2023/07/08 07:45:16;;;;;;;5.57;3.10;;;;;;;;;;5048894;28;20024;-75
2023/07/08 07:47:41;;;;;;;7.43;3.58;;;;;;;;;;5045898;28;20021;-76
2023/07/08 07:50:09;;;;;;;6.18;3.10;;;;;;;;;;5052680;28;20443;-75
2023/07/08 07:52:35;;;;;;;5.85;3.20;;;;;;;;;;5058274;28;20027;-75
2023/07/08 07:55:02;;;;;;;5.80;3.10;;;;;;;;;;5032276;28;20509;-76
2023/07/08 07:57:27;;;;;;;6.22;3.17;;;;;;;;;;5038432;28;20037;-75
2023/07/08 07:59:52;;;;;;;7.95;3.47;;;;;;;;;;5024937;28;20052;-76
2023/07/08 08:02:18;;;;;;;6.13;2.88;;;;;;;;;;5048454;28;20028;-76
2023/07/08 08:04:44;;;;;;;6.82;3.33;;;;;;;;;;5046429;28;20069;-76
2023/07/08 08:07:09;;;;;;;6.75;3.83;;;;;;;;;;5045523;28;20025;-77
2023/07/08 08:09:37;;;;;;;8.88;3.22;;;;;;;;;;5054122;28;20082;-75
2023/07/08 08:12:03;;;;;;;6.10;3.78;;;;;;;;;;5043993;28;20039;-75
2023/07/08 08:14:29;;;;;;;7.22;3.47;;;;;;;;;;5027295;28;20120;-79
2023/07/08 08:16:54;;;;;;;6.05;3.65;;;;;;;;;;5037801;28;20400;-77
2023/07/08 08:19:20;;;;;;;8.02;3.65;;;;;;;;;;5029110;28;20087;-75
2023/07/08 08:21:45;;;;;;;4.80;3.17;;;;;;;;;;5030928;28;20036;-76
2023/07/08 08:24:11;;;;;;;6.80;3.60;;;;;;;;;;5038328;28;20068;-76
2023/07/08 08:26:36;;;;;;;5.20;3.25;;;;;;;;;;5046905;28;20371;-77
2023/07/08 08:29:01;;;;;;;5.53;3.50;;;;;;;;;;5041956;28;20557;-75
2023/07/08 08:31:27;;;;;;;7.45;3.70;;;;;;;;;;5030718;28;20033;-77
2023/07/08 08:33:52;;;;;;;5.90;3.40;;;;;;;;;;5051663;28;20518;-76
2023/07/08 08:36:18;;;;;;;8.30;3.63;;;;;;;;;;5044797;28;20036;-77
2023/07/08 08:38:43;;;;;;;5.88;3.80;;;;;;;;;;5044610;28;20028;-77
2023/07/08 08:41:14;;;;;;;6.53;3.47;;;;;;;;;;5029075;28;20036;-76
2023/07/08 08:43:41;;;;;;;7.15;3.67;;;;;;;;;;5046201;28;20035;-77
2023/07/08 08:46:34;;;;;;;7.55;3.70;;;;;;;;;;5028893;28;20032;-75
2023/07/08 08:49:11;;;;;;;6.43;3.80;;;;;;;;;;5024987;28;20040;-77
2023/07/08 08:51:37;;;;;;;10.50;3.80;;;;;;;;;;5037014;28;20046;-77
2023/07/08 08:54:02;;;;;;;7.10;4.18;;;;;;;;;;5056267;28;20468;-78
2023/07/08 08:56:44;;;;;;;7.63;3.92;;;;;;;;;;5039986;28;20059;-79
2023/07/08 08:59:44;;;;;;;7.60;4.07;;;;;;;;;;5034128;28;20032;-76
2023/07/08 09:02:40;;;;;;;8.07;3.78;;;;;;;;;;5045278;28;20033;-76
2023/07/08 09:05:11;;;;;;;5.95;3.67;;;;;;;;;;5024524;28;20495;-77
2023/07/08 09:07:58;;;;;;;8.40;4.40;;;;;;;;;;5027609;28;20621;-79
2023/07/08 09:10:29;;;;;;;6.88;3.72;;;;;;;;;;5028125;28;20493;-77
2023/07/08 09:12:56;;;;;;;5.97;3.75;;;;;;;;;;5030343;28;20071;-76
2023/07/08 09:15:21;;;;;;;10.00;3.80;;;;;;;;;;5027318;28;20053;-77
2023/07/08 09:17:49;;;;;;;7.22;4.40;;;;;;;;;;5050870;28;20088;-76
2023/07/08 09:20:28;;;;;;;8.35;4.25;;;;;;;;;;5016456;28;20102;-76
2023/07/08 09:22:58;;;;;;;7.03;4.10;;;;;;;;;;5014584;28;20033;-77
2023/07/08 09:25:37;;;;;;;6.40;3.70;;;;;;;;;;5039129;28;20032;-77
2023/07/08 09:28:02;;;;;;;7.25;4.10;;;;;;;;;;5052379;28;20036;-77
2023/07/08 09:30:30;;;;;;;6.05;3.80;;;;;;;;;;5055126;28;20028;-77
2023/07/08 09:32:57;;;;;;;7.45;3.95;;;;;;;;;;5034793;28;20076;-76
2023/07/08 09:35:28;;;;;;;7.25;4.30;;;;;;;;;;5050611;28;20080;-77
2023/07/08 09:37:55;;;;;;;7.07;3.95;;;;;;;;;;5027693;28;20045;-76
2023/07/08 09:40:31;;;;;;;7.22;3.92;;;;;;;;;;5048172;28;20035;-77
2023/07/08 09:43:14;;;;;;;8.32;4.13;;;;;;;;;;5029371;28;20056;-76
2023/07/08 09:45:42;;;;;;;5.97;3.65;;;;;;;;;;5055191;28;20025;-79
2023/07/08 09:48:25;;;;;;;7.18;4.47;;;;;;;;;;5049639;28;20029;-76
2023/07/08 09:50:52;;;;;;;8.68;4.15;;;;;;;;;;5032387;28;20037;-76
2023/07/08 09:53:18;;;;;;;5.82;4.13;;;;;;;;;;5041299;28;20039;-77
2023/07/08 09:55:45;;;;;;;6.93;4.47;;;;;;;;;;5049368;28;20116;-76
2023/07/08 09:58:37;;;;;;;7.85;3.95;;;;;;;;;;5028425;28;20508;-78
2023/07/08 10:01:12;;;;;;;7.10;4.38;;;;;;;;;;5003589;28;20541;-78
2023/07/08 10:03:37;;;;;;;7.38;4.32;;;;;;;;;;5046542;28;20029;-77
2023/07/08 10:06:06;;;;;;;8.50;4.35;;;;;;;;;;5037263;28;20025;-77
2023/07/08 10:08:42;;;;;;;5.90;4.13;;;;;;;;;;5049868;28;20370;-77
2023/07/08 10:11:22;;;;;;;8.15;4.43;;;;;;;;;;5046629;28;20028;-77
2023/07/08 10:13:52;;;;;;;7.82;4.60;;;;;;;;;;5029296;28;20028;-76
2023/07/08 10:16:28;;;;;;;6.97;4.10;;;;;;;;;;5024468;28;20086;-77
2023/07/08 10:18:55;;;;;;;8.45;4.70;;;;;;;;;;5028088;28;20061;-77
2023/07/08 10:21:34;;;;;;;7.60;4.90;;;;;;;;;;5050082;28;20035;-79
2023/07/08 10:24:19;;;;;;;7.75;4.57;;;;;;;;;;5046639;28;20092;-78
2023/07/08 10:26:49;;;;;;;9.65;4.32;;;;;;;;;;5038429;28;20027;-77
2023/07/08 10:29:34;;;;;;;6.35;4.03;;;;;;;;;;5035075;28;20021;-78
2023/07/08 10:32:08;;;;;;;7.45;4.25;;;;;;;;;;5021555;28;20429;-79
2023/07/08 10:34:46;;;;;;;6.65;4.20;;;;;;;;;;5027343;28;20017;-77
2023/07/08 10:37:27;;;;;;;11.20;4.53;;;;;;;;;;5050312;28;20039;-78
2023/07/08 10:40:07;;;;;;;7.25;4.10;;;;;;;;;;5042348;28;20028;-78
2023/07/08 10:42:57;;;;;;;9.10;3.85;;;;;;;;;;5045715;28;20040;-78
2023/07/08 10:45:39;;;;;;;7.30;4.30;;;;;;;;;;5042551;28;20083;-79
2023/07/08 10:48:43;;;;;;;7.18;4.20;;;;;;;;;;5031938;28;20036;-80
2023/07/08 10:51:41;;;;;;;7.22;4.07;;;;;;;;;;5014338;28;20032;-79
2023/07/08 10:54:34;;;;;;;6.68;4.20;;;;;;;;;;5001718;28;20047;-77
2023/07/08 10:57:35;;;;;;;7.25;4.75;;;;;;;;;;5017652;28;20119;-77
2023/07/08 11:00:24;;;;;;;7.45;4.30;;;;;;;;;;5040279;28;20037;-78
2023/07/08 11:03:04;;;;;;;8.23;4.15;;;;;;;;;;5025119;28;20029;-77
2023/07/08 11:05:43;;;;;;;7.85;4.15;;;;;;;;;;5044113;28;20477;-79
2023/07/08 11:08:25;;;;;;;8.35;4.68;;;;;;;;;;5027049;28;20058;-77
2023/07/08 11:10:52;;;;;;;;;;;;;;;;;;5034470;28;20033;-77
2023/07/08 11:13:21;;;;;;;7.15;4.70;;;;;;;;;;5035536;28;20282;-77
2023/07/08 11:16:05;;;;;;;7.47;4.40;;;;;;;;;;5022330;28;20028;-80
2023/07/08 11:18:46;;;;;;;9.48;4.53;;;;;;;;;;5040660;28;20044;-78
2023/07/08 11:21:21;;;;;;;10.48;4.75;;;;;;;;;;5023454;28;20039;-78
2023/07/08 11:23:52;;;;;;;7.78;4.57;;;;;;;;;;5041999;28;20024;-78
2023/07/08 11:26:29;;;;;;;8.95;5.03;;;;;;;;;;5025487;28;20519;-77
2023/07/08 11:28:58;;;;;;;7.88;5.38;;;;;;;;;;5006642;28;20068;-79
2023/07/08 11:31:27;;;;;;;10.02;5.10;;;;;;;;;;5023776;28;20036;-78
2023/07/08 11:33:55;;;;;;;7.63;4.28;;;;;;;;;;5038908;28;20054;-78
2023/07/08 11:36:22;;;;;;;9.65;5.05;;;;;;;;;;5028097;28;20024;-80
2023/07/08 11:38:57;;;;;;;8.13;4.95;;;;;;;;;;5028040;28;20485;-78
2023/07/08 11:41:28;;;;;;;7.15;4.35;;;;;;;;;;5024140;28;20798;-80
2023/07/08 11:43:59;;;;;;;6.75;4.28;;;;;;;;;;5027680;28;20064;-78
2023/07/08 11:46:31;;;;;;;8.27;4.80;;;;;;;;;;5041876;28;20029;-80
2023/07/08 11:49:01;;;;;;;7.63;4.50;;;;;;;;;;5025643;28;20036;-78
2023/07/08 11:51:31;;;;;;;10.82;4.82;;;;;;;;;;5029450;28;20128;-78
2023/07/08 11:53:59;;;;;;;7.18;4.47;;;;;;;;;;5040155;28;20095;-78
2023/07/08 11:56:26;;;;;;;6.43;4.28;;;;;;;;;;5045243;28;20021;-78
2023/07/08 11:59:18;;;;;;;7.22;4.80;;;;;;;;;;5026912;28;20032;-80
2023/07/08 12:01:53;;;;;;;7.03;4.93;;;;;;;;;;5041297;28;20137;-78
2023/07/08 12:04:29;;;;;;;8.50;4.15;;;;;;;;;;5017257;28;20017;-78
2023/07/08 12:07:16;;;;;;;11.13;4.45;;;;;;;;;;5042555;28;20327;-79
2023/07/08 12:10:15;;;;;;;6.75;4.40;;;;;;;;;;5029361;28;20052;-77
2023/07/08 12:12:43;;;;;;;7.78;4.55;;;;;;;;;;5023913;28;20039;-77
2023/07/08 12:15:19;;;;;;;8.35;4.28;;;;;;;;;;5031399;28;20086;-77
2023/07/08 12:17:45;;;;;;;9.02;4.07;;;;;;;;;;5029033;28;20461;-78
2023/07/08 12:20:25;;;;;;;6.60;4.47;;;;;;;;;;5045105;28;20080;-77
2023/07/08 12:22:51;;;;;;;8.73;4.32;;;;;;;;;;5030017;28;20128;-77
2023/07/08 12:25:19;;;;;;;7.28;4.07;;;;;;;;;;5047500;28;20107;-77
2023/07/08 12:27:46;;;;;;;9.45;4.45;;;;;;;;;;5027223;28;20021;-77
2023/07/08 12:30:12;;;;;;;8.18;4.70;;;;;;;;;;5050702;28;20064;-76
2023/07/08 12:32:39;;;;;;;8.02;4.25;;;;;;;;;;5035370;28;20033;-79
2023/07/08 12:35:41;;;;;;;6.90;4.20;;;;;;;;;;5033076;28;20028;-77
2023/07/08 12:38:33;;;;;;;8.10;4.13;;;;;;;;;;4997026;28;20040;-77
2023/07/08 12:41:10;;;;;;;6.60;4.20;;;;;;;;;;5046736;28;20029;-76
2023/07/08 12:43:36;;;;;;;8.05;4.50;;;;;;;;;;5052261;28;20481;-77
2023/07/08 12:46:03;;;;;;;7.00;4.10;;;;;;;;;;5047849;28;20120;-77
2023/07/08 12:48:36;;;;;;;7.55;4.38;;;;;;;;;;5036263;28;20480;-78
2023/07/08 12:51:06;;;;;;;10.13;4.13;;;;;;;;;;5055785;28;20029;-77
2023/07/08 12:53:33;;;;;;;6.65;3.88;;;;;;;;;;5046420;28;20025;-77
2023/07/08 12:56:00;;;;;;;6.38;3.95;;;;;;;;;;5032450;28;20033;-77
2023/07/08 12:58:29;;;;;;;9.23;4.15;;;;;;;;;;5052077;28;20063;-78
2023/07/08 13:01:01;;;;;;;7.43;4.00;;;;;;;;;;5022326;28;20124;-77
2023/07/08 13:03:29;;;;;;;5.80;4.10;;;;;;;;;;5031674;28;20052;-78
2023/07/08 13:05:56;;;;;;;7.32;4.03;;;;;;;;;;5036757;28;20457;-78
2023/07/08 13:08:25;;;;;;;8.05;4.00;;;;;;;;;;5033395;28;20108;-76
2023/07/08 13:10:55;;;;;;;8.13;4.07;;;;;;;;;;5053509;28;20119;-77
2023/07/08 13:13:23;;;;;;;6.20;3.97;;;;;;;;;;5049472;28;20111;-78
2023/07/08 13:15:49;;;;;;;7.53;4.40;;;;;;;;;;5025704;28;20056;-77
2023/07/08 13:18:29;;;;;;;6.88;3.90;;;;;;;;;;5033059;28;20025;-77
2023/07/08 13:20:56;;;;;;;9.10;4.07;;;;;;;;;;5039067;28;20481;-80
2023/07/08 13:23:22;;;;;;;10.13;4.18;;;;;;;;;;5042318;28;20366;-77
2023/07/08 13:25:50;;;;;;;7.57;3.60;;;;;;;;;;5029974;28;20025;-78
2023/07/08 13:28:17;;;;;;;6.32;3.70;;;;;;;;;;5046259;28;20175;-78
2023/07/08 13:30:55;;;;;;;6.78;3.90;;;;;;;;;;5048698;28;20033;-77
2023/07/08 13:33:21;;;;;;;7.32;3.97;;;;;;;;;;5036708;28;20041;-78
2023/07/08 13:35:47;;;;;;;10.93;3.72;;;;;;;;;;5032947;28;20087;-77
2023/07/08 13:38:18;;;;;;;8.32;4.32;;;;;;;;;;5047485;28;20040;-76
2023/07/08 13:40:51;;;;;;;7.30;3.88;;;;;;;;;;5051231;28;20107;-79
2023/07/08 13:43:24;;;;;;;8.02;4.10;;;;;;;;;;5040501;28;20032;-77
2023/07/08 13:45:50;;;;;;;9.50;3.97;;;;;;;;;;5042577;28;20428;-81
2023/07/08 13:48:26;;;;;;;6.43;4.03;;;;;;;;;;5007989;28;20029;-78
2023/07/08 13:51:05;;;;;;;7.00;4.03;;;;;;;;;;5048334;28;20496;-77
2023/07/08 13:53:43;;;;;;;6.43;3.90;;;;;;;;;;5049529;28;20163;-77
2023/07/08 13:56:19;;;;;;;7.22;3.97;;;;;;;;;;5045304;28;20036;-77
2023/07/08 13:58:48;;;;;;;6.95;3.75;;;;;;;;;;5041073;28;20049;-79
2023/07/08 14:01:25;;;;;;;6.90;3.90;;;;;;;;;;5046682;28;20029;-77
2023/07/08 14:03:52;;;;;;;6.20;3.97;;;;;;;;;;5031552;28;20564;-79
2023/07/08 14:06:22;;;;;;;6.53;4.13;;;;;;;;;;5047293;28;20469;-77
2023/07/08 14:08:48;;;;;;;8.93;4.18;;;;;;;;;;5050852;28;20028;-78
2023/07/08 14:11:14;;;;;;;7.22;3.70;;;;;;;;;;5026223;28;20025;-80
2023/07/08 14:13:39;;;;;;;7.70;4.57;;;;;;;;;;5048804;28;20064;-78
2023/07/08 14:16:23;;;;;;;7.93;4.22;;;;;;;;;;5048371;28;20024;-78
2023/07/08 14:18:48;;;;;;;10.65;4.03;;;;;;;;;;5021946;28;20832;-77
2023/07/08 14:21:13;;;;;;;6.43;3.50;;;;;;;;;;5028524;28;20076;-78
2023/07/08 14:23:39;;;;;;;6.63;3.72;;;;;;;;;;5036225;28;20029;-78
2023/07/08 14:26:10;;;;;;;6.30;4.18;;;;;;;;;;5040477;28;20029;-77
2023/07/08 14:28:35;;;;;;;5.70;3.50;;;;;;;;;;5046257;28;20029;-78
2023/07/08 14:31:01;;;;;;;8.98;3.97;;;;;;;;;;5051844;28;20028;-77
2023/07/08 14:33:26;;;;;;;6.78;4.50;;;;;;;;;;5049657;28;20031;-77
2023/07/08 14:35:51;;;;;;;8.88;3.88;;;;;;;;;;5017539;28;20130;-77
2023/07/08 14:38:17;;;;;;;7.05;3.63;;;;;;;;;;5028585;28;20041;-78
2023/07/08 14:40:42;;;;;;;8.35;4.22;;;;;;;;;;5046870;28;20033;-77
2023/07/08 14:43:20;;;;;;;6.07;3.60;;;;;;;;;;5041303;28;20033;-78
2023/07/08 14:45:53;;;;;;;6.20;3.55;;;;;;;;;;5039544;28;20389;-77
2023/07/08 14:48:19;;;;;;;7.70;4.00;;;;;;;;;;5010305;28;20719;-78
2023/07/08 14:50:45;;;;;;;7.65;4.00;;;;;;;;;;5046712;28;20113;-77
2023/07/08 14:53:14;;;;;;;6.97;3.90;;;;;;;;;;5029731;28;20401;-81
2023/07/08 14:55:41;;;;;;;6.75;3.67;;;;;;;;;;5026841;28;20082;-78
2023/07/08 14:58:06;;;;;;;7.57;3.70;;;;;;;;;;5043714;28;20622;-77